createdAt,value
2023-02-22T00:01:35.613Z,1.37
2023-02-22T00:04:05.479Z,1.90
2023-02-22T00:06:32.419Z,1.10
2023-02-22T00:08:59.566Z,1.40
2023-02-22T00:11:26.365Z,1.63
2023-02-22T00:13:56.384Z,1.77
2023-02-22T00:16:24.895Z,1.67
2023-02-22T00:18:52.420Z,1.70
2023-02-22T00:21:20.066Z,2.33
2023-02-22T00:23:48.430Z,1.87
2023-02-22T00:26:20.974Z,1.87
2023-02-22T00:28:50.897Z,1.90
2023-02-22T00:31:19.120Z,2.00
2023-02-22T00:33:46.081Z,2.00
2023-02-22T00:36:13.488Z,2.90
2023-02-22T00:38:41.544Z,3.47
2023-02-22T00:41:08.797Z,3.33
2023-02-22T00:43:35.395Z,2.77
2023-02-22T00:46:02.271Z,3.07
2023-02-22T00:48:28.786Z,2.70
2023-02-22T00:50:55.468Z,3.27
2023-02-22T00:53:24.814Z,2.67
2023-02-22T00:55:51.938Z,2.50
2023-02-22T00:58:18.838Z,2.57
2023-02-22T01:00:45.795Z,2.40
2023-02-22T01:03:22.517Z,2.17
2023-02-22T01:05:49.261Z,1.70
2023-02-22T01:08:17.148Z,1.60
2023-02-22T01:10:44.088Z,1.70
2023-02-22T01:13:11.857Z,1.73
2023-02-22T01:15:41.699Z,1.60
2023-02-22T01:18:08.733Z,1.70
2023-02-22T01:20:36.524Z,1.77
2023-02-22T01:23:07.069Z,1.77
2023-02-22T01:25:35.128Z,1.97
2023-02-22T01:28:04.945Z,1.77
2023-02-22T01:30:34.793Z,2.10
2023-02-22T01:33:04.382Z,1.60
2023-02-22T01:35:35.217Z,1.70
2023-02-22T01:38:01.981Z,1.63
2023-02-22T01:40:35.522Z,1.30
2023-02-22T01:43:14.953Z,1.80
2023-02-22T01:46:05.841Z,1.50
2023-02-22T01:48:48.809Z,1.40
2023-02-22T01:51:36.932Z,1.63
2023-02-22T01:55:04.324Z,1.33
2023-02-22T01:57:37.508Z,1.30
2023-02-22T02:00:20.276Z,1.33
2023-02-22T02:02:58.169Z,0.90
2023-02-22T02:05:27.293Z,1.10
2023-02-22T02:07:54.134Z,1.10
2023-02-22T02:10:23.531Z,1.20
2023-02-22T02:12:52.989Z,1.17
2023-02-22T02:15:32.955Z,1.20
2023-02-22T02:18:09.242Z,1.20
2023-02-22T02:24:58.393Z,1.00
2023-02-22T02:28:14.193Z,1.13
2023-02-22T02:32:51.329Z,1.37
2023-02-22T02:37:21.030Z,0.93
2023-02-22T02:40:20.283Z,1.13
2023-02-22T02:43:54.443Z,1.17
2023-02-22T02:46:31.624Z,1.27
2023-02-22T02:49:06.118Z,1.00
2023-02-22T02:51:41.017Z,1.23
2023-02-22T02:54:09.711Z,1.30
2023-02-22T02:56:36.448Z,1.13
2023-02-22T02:59:02.920Z,1.37
2023-02-22T03:09:08.208Z,1.30
2023-02-22T03:12:09.709Z,1.10
2023-02-22T03:16:29.441Z,1.07
2023-02-22T03:21:21.073Z,1.13
2023-02-22T03:24:11.062Z,1.40
2023-02-22T03:27:02.087Z,1.40
2023-02-22T03:29:34.774Z,1.43
2023-02-22T03:32:08.329Z,0.93
2023-02-22T03:34:43.110Z,1.53
2023-02-22T03:37:22.613Z,1.20
2023-02-22T03:39:54.163Z,1.20
2023-02-22T03:42:33.040Z,1.10
2023-02-22T03:45:04.301Z,1.30
2023-02-22T03:47:41.390Z,1.53
2023-02-22T03:50:16.513Z,1.17
2023-02-22T03:52:46.689Z,1.50
2023-02-22T03:55:16.929Z,1.20
2023-02-22T03:57:57.919Z,1.30
2023-02-22T04:00:29.316Z,1.10
2023-02-22T04:02:56.058Z,1.40
2023-02-22T04:05:24.258Z,1.50
2023-02-22T04:07:55.255Z,1.33
2023-02-22T04:10:23.873Z,1.37
2023-02-22T04:12:50.837Z,1.40
2023-02-22T04:15:23.226Z,1.40
2023-02-22T04:17:51.463Z,1.57
2023-02-22T04:20:19.090Z,1.40
2023-02-22T04:22:46.653Z,1.30
2023-02-22T04:25:14.263Z,1.37
2023-02-22T04:27:40.749Z,1.23
2023-02-22T04:30:08.380Z,1.40
2023-02-22T04:32:34.865Z,1.43
2023-02-22T04:35:01.435Z,1.70
2023-02-22T04:37:27.901Z,1.33
2023-02-22T04:39:54.467Z,1.60
2023-02-22T04:42:21.007Z,1.40
2023-02-22T04:44:47.824Z,1.47
2023-02-22T04:47:14.300Z,1.50
2023-02-22T04:49:40.782Z,1.60
2023-02-22T04:52:07.266Z,1.43
2023-02-22T04:54:33.759Z,1.57
2023-02-22T04:57:00.231Z,1.37
2023-02-22T04:59:26.701Z,1.53
2023-02-22T05:01:53.426Z,2.00
2023-02-22T05:04:20.899Z,1.47
2023-02-22T05:06:47.844Z,1.30
2023-02-22T05:09:14.604Z,1.83
2023-02-22T05:11:41.111Z,1.30
2023-02-22T05:14:07.561Z,1.53
2023-02-22T05:16:34.030Z,1.63
2023-02-22T05:19:00.644Z,1.50
2023-02-22T05:21:27.130Z,1.57
2023-02-22T05:23:53.615Z,1.57
2023-02-22T05:26:20.073Z,1.73
2023-02-22T05:28:46.636Z,1.97
2023-02-22T05:31:13.818Z,1.50
2023-02-22T05:33:40.334Z,1.40
2023-02-22T05:36:07.871Z,1.17
2023-02-22T05:38:35.696Z,1.30
2023-02-22T05:41:02.203Z,1.40
2023-02-22T05:43:28.658Z,1.50
2023-02-22T05:45:55.110Z,1.70
2023-02-22T05:48:22.765Z,1.83
2023-02-22T05:50:49.255Z,1.80
2023-02-22T05:53:15.730Z,1.63
2023-02-22T05:55:42.185Z,1.50
2023-02-22T05:58:08.670Z,1.90
2023-02-22T06:00:35.184Z,1.47
2023-02-22T06:03:08.393Z,1.63
2023-02-22T06:05:36.228Z,1.67
2023-02-22T06:08:05.074Z,2.00
2023-02-22T06:10:31.846Z,1.80
2023-02-22T06:13:00.693Z,1.80
2023-02-22T06:15:28.405Z,2.03
2023-02-22T06:17:57.122Z,2.23
2023-02-22T06:20:26.201Z,1.97
2023-02-22T06:22:55.871Z,2.10
2023-02-22T06:25:27.281Z,1.70
2023-02-22T06:27:53.800Z,1.70
2023-02-22T06:30:24.215Z,2.10
2023-02-22T06:32:50.750Z,2.10
2023-02-22T06:35:17.765Z,2.20
2023-02-22T06:37:44.577Z,2.70
2023-02-22T06:40:12.389Z,2.10
2023-02-22T06:42:39.542Z,2.40
2023-02-22T06:45:07.145Z,2.93
2023-02-22T06:47:37.921Z,2.87
2023-02-22T06:50:04.812Z,2.20
2023-02-22T06:52:31.304Z,2.57
2023-02-22T06:54:57.770Z,3.47
2023-02-22T06:57:24.454Z,2.43
2023-02-22T06:59:51.003Z,2.17
2023-02-22T07:02:17.450Z,2.23
2023-02-22T07:04:45.283Z,2.13
2023-02-22T07:07:11.746Z,2.40
2023-02-22T07:09:38.220Z,3.10
2023-02-22T07:12:04.846Z,3.20
2023-02-22T07:14:31.309Z,3.00
2023-02-22T07:16:57.776Z,3.23
2023-02-22T07:19:24.272Z,3.60
2023-02-22T07:21:56.209Z,4.03
2023-02-22T07:24:22.666Z,3.83
2023-02-22T07:26:49.145Z,3.63
2023-02-22T07:29:15.594Z,4.10
2023-02-22T07:31:42.354Z,4.40
2023-02-22T07:34:08.819Z,4.23
2023-02-22T07:36:35.270Z,5.00
2023-02-22T07:39:01.754Z,4.10
2023-02-22T07:41:28.231Z,4.57
2023-02-22T07:43:54.709Z,6.93
2023-02-22T07:46:21.171Z,7.23
2023-02-22T07:48:50.540Z,8.03
2023-02-22T07:51:19.911Z,8.37
2023-02-22T07:53:47.840Z,7.33
2023-02-22T07:56:14.947Z,7.87
2023-02-22T07:58:41.420Z,7.77
2023-02-22T08:01:08.154Z,6.93
2023-02-22T08:03:37.176Z,6.10
2023-02-22T08:06:06.682Z,5.33
2023-02-22T08:08:33.726Z,5.10
2023-02-22T08:11:00.252Z,5.37
2023-02-22T08:13:26.752Z,5.17
2023-02-22T08:15:53.794Z,5.30
2023-02-22T08:18:22.316Z,5.20
2023-02-22T08:20:51.273Z,5.30
2023-02-22T08:23:21.747Z,4.37
2023-02-22T08:25:48.378Z,4.37
2023-02-22T08:28:19.155Z,4.47
2023-02-22T08:30:45.739Z,5.00
2023-02-22T08:33:18.554Z,4.77
2023-02-22T08:35:50.859Z,5.73
2023-02-22T08:38:29.318Z,7.83
2023-02-22T08:40:55.866Z,9.23
2023-02-22T08:43:23.007Z,11.17
2023-02-22T08:45:51.002Z,10.03
2023-02-22T08:48:19.462Z,9.07
2023-02-22T08:50:46.216Z,8.47
2023-02-22T08:53:15.450Z,8.47
2023-02-22T08:55:42.248Z,8.03
2023-02-22T08:58:09.204Z,8.37
2023-02-22T09:00:37.978Z,7.17
2023-02-22T09:03:08.677Z,6.57
2023-02-22T09:05:35.181Z,6.80
2023-02-22T09:08:01.947Z,7.30
2023-02-22T09:10:33.344Z,7.00
2023-02-22T09:13:00.378Z,7.63
2023-02-22T09:15:27.878Z,8.03
2023-02-22T09:17:54.935Z,7.03
2023-02-22T09:20:23.393Z,6.87
2023-02-22T09:22:50.488Z,6.97
2023-02-22T09:25:19.776Z,7.33
2023-02-22T09:27:53.564Z,7.57
2023-02-22T09:30:34.272Z,7.07
2023-02-22T09:33:11.511Z,7.70
2023-02-22T09:35:45.473Z,8.90
2023-02-22T09:38:19.747Z,10.43
2023-02-22T09:40:51.509Z,10.23
2023-02-22T09:45:12.069Z,11.07
2023-02-22T09:47:48.967Z,11.60
2023-02-22T09:50:25.561Z,10.50
2023-02-22T09:53:05.098Z,10.83
2023-02-22T09:55:40.430Z,10.20
2023-02-22T09:58:32.661Z,10.90
2023-02-22T10:01:34.230Z,10.63
2023-02-22T10:07:24.240Z,11.53
2023-02-22T10:09:55.769Z,12.30
2023-02-22T10:15:34.278Z,11.97
2023-02-22T10:19:57.254Z,10.83
2023-02-22T10:26:37.052Z,12.70
2023-02-22T10:29:39.903Z,12.23
2023-02-22T10:32:18.259Z,12.07
2023-02-22T10:34:53.143Z,14.00
2023-02-22T10:37:30.935Z,13.23
2023-02-22T10:40:22.319Z,13.07
2023-02-22T10:42:49.947Z,13.53
2023-02-22T10:45:32.846Z,12.93
2023-02-22T10:48:10.718Z,13.30
2023-02-22T10:50:41.617Z,13.20
2023-02-22T10:53:10.257Z,14.03
2023-02-22T10:56:21.923Z,13.10
2023-02-22T10:59:05.991Z,11.97
2023-02-22T11:01:40.127Z,9.87
2023-02-22T11:04:22.687Z,11.30
2023-02-22T11:09:00.121Z,10.93
2023-02-22T11:11:28.460Z,9.83
2023-02-22T11:13:56.759Z,9.73
2023-02-22T11:17:33.805Z,9.20
2023-02-22T11:20:00.417Z,9.20
2023-02-22T11:22:46.421Z,8.83
2023-02-22T11:25:25.622Z,8.87
2023-02-22T11:27:53.622Z,8.77
2023-02-22T11:30:32.343Z,9.23
2023-02-22T11:33:24.981Z,9.73
2023-02-22T11:36:04.051Z,9.37
2023-02-22T11:38:36.895Z,7.90
2023-02-22T11:41:26.956Z,8.07
2023-02-22T11:43:56.152Z,8.53
2023-02-22T11:46:32.804Z,8.90
2023-02-22T11:49:10.777Z,8.77
2023-02-22T11:53:48.944Z,8.77
2023-02-22T11:56:39.263Z,8.10
2023-02-22T12:00:57.906Z,7.50
2023-02-22T12:04:06.462Z,7.87
2023-02-22T12:09:13.201Z,8.60
2023-02-22T12:12:07.157Z,8.70
2023-02-22T12:17:00.329Z,8.30
2023-02-22T12:19:50.266Z,8.33
2023-02-22T12:22:35.497Z,8.53
2023-02-22T12:25:26.338Z,8.93
2023-02-22T12:27:59.766Z,8.83
2023-02-22T12:30:37.682Z,8.05
2023-02-22T12:33:20.394Z,8.43
2023-02-22T12:35:58.252Z,9.23
2023-02-22T12:38:38.903Z,8.73
2023-02-22T12:42:17.384Z,8.80
2023-02-22T12:44:53.743Z,8.33
2023-02-22T12:47:36.221Z,8.83
2023-02-22T12:50:28.286Z,8.73
2023-02-22T12:53:25.053Z,8.70
2023-02-22T12:56:00.405Z,8.30
2023-02-22T12:58:49.022Z,8.43
2023-02-22T13:01:25.172Z,9.03
2023-02-22T13:03:55.104Z,8.55
2023-02-22T13:08:43.010Z,8.77
2023-02-22T13:13:34.995Z,8.93
2023-02-22T13:17:51.558Z,8.27
2023-02-22T13:20:40.545Z,8.03
2023-02-22T13:25:16.935Z,8.87
2023-02-22T13:29:27.931Z,8.50
2023-02-22T13:34:45.277Z,9.03
2023-02-22T13:39:03.151Z,9.10
2023-02-22T13:43:42.571Z,8.23
2023-02-22T13:50:55.324Z,8.50
2023-02-22T13:53:29.741Z,9.30
2023-02-22T13:55:59.971Z,9.77
2023-02-22T13:58:27.068Z,9.57
2023-02-22T14:00:58.358Z,10.23
2023-02-22T14:03:40.147Z,10.07
2023-02-22T14:06:37.303Z,9.43
2023-02-22T14:09:13.953Z,9.07
2023-02-22T14:11:42.347Z,9.77
2023-02-22T14:14:16.440Z,10.73
2023-02-22T14:16:43.237Z,10.50
2023-02-22T14:19:22.747Z,10.70
2023-02-22T14:22:05.115Z,10.70
2023-02-22T14:24:47.334Z,10.43
2023-02-22T14:27:16.793Z,12.23
2023-02-22T14:29:56.817Z,10.90
2023-02-22T14:32:34.793Z,11.17
2023-02-22T14:35:26.543Z,11.13
2023-02-22T14:38:00.506Z,11.60
2023-02-22T14:40:35.651Z,10.67
2023-02-22T14:43:23.809Z,10.67
2023-02-22T14:45:59.497Z,10.57
2023-02-22T14:48:41.983Z,11.23
2023-02-22T14:51:40.908Z,12.00
2023-02-22T14:54:26.362Z,10.43
2023-02-22T14:57:18.174Z,10.30
2023-02-22T15:00:21.964Z,10.50
2023-02-22T15:02:56.449Z,10.43
2023-02-22T15:05:22.993Z,10.27
2023-02-22T15:08:27.535Z,9.73
2023-02-22T15:10:54.161Z,10.83
2023-02-22T15:13:27.151Z,10.63
2023-02-22T15:16:03.764Z,10.57
2023-02-22T15:18:45.864Z,9.57
2023-02-22T15:21:16.535Z,10.00
2023-02-22T15:23:50.634Z,10.03
2023-02-22T15:27:01.056Z,9.80
2023-02-22T15:29:43.658Z,9.17
2023-02-22T15:32:41.477Z,8.33
2023-02-22T15:35:44.722Z,8.60
2023-02-22T15:38:21.760Z,9.30
2023-02-22T15:41:01.809Z,8.80
2023-02-22T15:43:29.179Z,8.30
2023-02-22T15:45:58.179Z,8.63
2023-02-22T15:48:27.789Z,8.43
2023-02-22T15:51:13.820Z,9.23
2023-02-22T15:53:48.360Z,7.53
2023-02-22T15:56:24.233Z,8.03
2023-02-22T15:58:58.181Z,7.80
2023-02-22T16:01:26.350Z,7.13
2023-02-22T16:03:58.673Z,7.77
2023-02-22T16:07:15.972Z,7.53
2023-02-22T16:09:50.832Z,7.60
2023-02-22T16:12:27.671Z,7.57
2023-02-22T16:14:55.688Z,6.60
2023-02-22T16:17:35.055Z,7.10
2023-02-22T16:22:40.517Z,6.63
2023-02-22T16:25:39.908Z,7.07
2023-02-22T16:28:34.703Z,7.47
2023-02-22T16:31:02.017Z,6.80
2023-02-22T16:33:33.028Z,7.07
2023-02-22T16:36:05.185Z,6.20
2023-02-22T16:38:32.976Z,6.50
2023-02-22T16:40:59.740Z,6.87
2023-02-22T16:43:33.504Z,6.47
2023-02-22T16:46:02.179Z,6.27
2023-02-22T16:48:37.544Z,6.87
2023-02-22T16:51:22.184Z,7.37
2023-02-22T16:53:49.993Z,7.57
2023-02-22T16:56:20.186Z,7.80
2023-02-22T16:58:49.970Z,6.07
2023-02-22T17:01:18.185Z,6.37
2023-02-22T17:03:44.860Z,7.03
2023-02-22T17:06:11.858Z,7.17
2023-02-22T17:08:41.906Z,7.50
2023-02-22T17:11:12.396Z,7.77
2023-02-22T17:13:40.153Z,7.90
2023-02-22T17:16:12.580Z,8.97
2023-02-22T17:18:39.103Z,10.83
2023-02-22T17:21:06.237Z,11.47
2023-02-22T17:23:32.854Z,9.97
2023-02-22T17:26:03.019Z,12.03
2023-02-22T17:28:31.442Z,12.07
2023-02-22T17:31:00.502Z,12.10
2023-02-22T17:33:32.081Z,11.53
2023-02-22T17:36:04.184Z,12.97
2023-02-22T17:38:31.479Z,12.20
2023-02-22T17:41:00.504Z,12.53
2023-02-22T17:43:27.260Z,13.23
2023-02-22T17:45:54.536Z,12.73
2023-02-22T17:48:23.918Z,9.87
2023-02-22T17:50:52.060Z,11.83
2023-02-22T17:53:21.815Z,12.13
2023-02-22T17:55:48.977Z,12.60
2023-02-22T17:58:15.957Z,13.50
2023-02-22T18:00:47.930Z,12.97
2023-02-22T18:03:24.348Z,12.63
2023-02-22T18:05:56.272Z,12.67
2023-02-22T18:08:25.041Z,12.73
2023-02-22T18:10:55.538Z,12.67
2023-02-22T18:13:25.838Z,11.47
2023-02-22T18:15:53.100Z,13.90
2023-02-22T18:18:21.377Z,11.57
2023-02-22T18:20:58.550Z,9.97
2023-02-22T18:23:27.603Z,10.10
2023-02-22T18:26:09.694Z,10.10
2023-02-22T18:28:38.060Z,9.57
2023-02-22T18:31:13.812Z,9.13
2023-02-22T18:33:48.591Z,9.67
2023-02-22T18:36:16.720Z,9.43
2023-02-22T18:38:43.960Z,10.13
2023-02-22T18:41:15.233Z,9.47
2023-02-22T18:43:42.566Z,10.70
2023-02-22T18:46:21.614Z,11.30
2023-02-22T18:48:53.292Z,10.93
2023-02-22T18:51:20.081Z,11.03
2023-02-22T18:53:47.547Z,11.30
2023-02-22T18:56:20.824Z,11.13
2023-02-22T18:58:51.665Z,9.47
2023-02-22T19:01:18.776Z,9.37
2023-02-22T19:03:48.454Z,9.77
2023-02-22T19:06:17.868Z,10.30
2023-02-22T19:08:46.323Z,9.93
2023-02-22T19:11:21.362Z,9.60
2023-02-22T19:13:51.837Z,8.90
2023-02-22T19:16:21.036Z,9.00
2023-02-22T19:18:51.463Z,8.70
2023-02-22T19:21:19.561Z,9.63
2023-02-22T19:23:47.239Z,9.10
2023-02-22T19:26:18.087Z,9.20
2023-02-22T19:28:46.422Z,9.87
2023-02-22T19:31:32.861Z,8.57
2023-02-22T19:34:10.680Z,8.27
2023-02-22T19:36:46.158Z,9.60
2023-02-22T19:39:19.530Z,9.30
2023-02-22T19:41:46.604Z,8.37
2023-02-22T19:44:13.443Z,8.70
2023-02-22T19:46:40.351Z,9.07
2023-02-22T19:49:07.048Z,9.37
2023-02-22T19:51:33.831Z,9.33
2023-02-22T19:54:03.540Z,9.87
2023-02-22T19:56:31.489Z,9.97
2023-02-22T19:59:12.692Z,8.23
2023-02-22T20:01:43.307Z,8.23
2023-02-22T20:04:17.248Z,8.23
2023-02-22T20:06:45.900Z,8.53
2023-02-22T20:09:29.025Z,8.80
2023-02-22T20:11:56.077Z,9.70
2023-02-22T20:14:27.580Z,9.20
2023-02-22T20:16:55.753Z,9.33
2023-02-22T20:19:23.598Z,8.93
2023-02-22T20:21:51.615Z,8.33
2023-02-22T20:24:18.492Z,8.53
2023-02-22T20:26:46.395Z,8.00
2023-02-22T20:29:14.241Z,8.20
2023-02-22T20:31:43.066Z,8.27
2023-02-22T20:34:10.789Z,8.80
2023-02-22T20:36:41.271Z,8.73
2023-02-22T20:39:12.548Z,8.43
2023-02-22T20:41:42.419Z,8.60
2023-02-22T20:44:13.118Z,8.60
2023-02-22T20:46:39.821Z,9.27
2023-02-22T20:49:10.874Z,8.10
2023-02-22T20:51:41.219Z,8.50
2023-02-22T20:54:10.787Z,8.70
2023-02-22T20:56:41.045Z,8.67
2023-02-22T20:59:10.084Z,8.53
2023-02-22T21:01:36.615Z,8.33
2023-02-22T21:04:06.550Z,8.40
2023-02-22T21:06:34.855Z,8.67
2023-02-22T21:09:04.317Z,8.87
2023-02-22T21:11:31.316Z,8.67
2023-02-22T21:13:59.411Z,8.40
2023-02-22T21:16:30.829Z,8.40
2023-02-22T21:19:01.715Z,8.07
2023-02-22T21:21:30.166Z,8.90
2023-02-22T21:24:01.443Z,8.60
2023-02-22T21:26:31.876Z,9.40
2023-02-22T21:29:05.065Z,10.07
2023-02-22T21:31:33.387Z,9.67
2023-02-22T21:34:01.141Z,8.93
2023-02-22T21:36:28.572Z,8.93
2023-02-22T21:39:00.953Z,9.30
2023-02-22T21:41:30.373Z,8.67
2023-02-22T21:43:58.663Z,8.80
2023-02-22T21:46:28.352Z,8.80
2023-02-22T21:48:57.850Z,8.93
2023-02-22T21:51:30.715Z,8.60
2023-02-22T21:54:00.257Z,8.30
2023-02-22T21:56:29.415Z,8.10
2023-02-22T21:59:10.876Z,8.13
2023-02-22T22:01:46.025Z,9.03
2023-02-22T22:04:19.355Z,8.53
2023-02-22T22:06:52.230Z,8.10
2023-02-22T22:09:20.988Z,8.30
2023-02-22T22:11:51.216Z,8.00
2023-02-22T22:14:19.530Z,7.57
2023-02-22T22:16:49.202Z,8.50
2023-02-22T22:19:16.424Z,8.43
2023-02-22T22:21:42.915Z,7.67
2023-02-22T22:24:10.520Z,7.33
2023-02-22T22:26:37.889Z,8.60
2023-02-22T22:29:08.581Z,8.73
2023-02-22T22:31:35.638Z,8.57
2023-02-22T22:34:02.150Z,7.03
2023-02-22T22:36:28.610Z,8.43
2023-02-22T22:38:58.285Z,8.33
2023-02-22T22:41:27.252Z,8.20
2023-02-22T22:43:53.932Z,8.50
2023-02-22T22:46:20.736Z,8.10
2023-02-22T22:48:47.495Z,8.70
2023-02-22T22:51:21.340Z,8.30
2023-02-22T22:53:49.968Z,8.63
2023-02-22T22:56:25.559Z,7.67
2023-02-22T22:58:55.323Z,7.13
2023-02-22T23:01:33.178Z,8.23
2023-02-22T23:04:02.910Z,8.03
2023-02-22T23:06:34.159Z,9.60
2023-02-22T23:09:17.647Z,7.73
2023-02-22T23:11:52.400Z,8.57
2023-02-22T23:14:31.495Z,8.00
2023-02-22T23:17:02.488Z,7.97
2023-02-22T23:19:34.378Z,7.93
2023-02-22T23:22:04.370Z,7.37
2023-02-22T23:24:35.374Z,8.03
2023-02-22T23:27:06.375Z,8.93
2023-02-22T23:29:37.758Z,7.97
2023-02-22T23:32:07.911Z,7.83
2023-02-22T23:34:35.984Z,8.13
2023-02-22T23:37:02.538Z,8.00
2023-02-22T23:39:29.094Z,8.07
2023-02-22T23:42:00.553Z,7.93
2023-02-22T23:44:28.290Z,7.20
2023-02-22T23:46:55.009Z,8.07
2023-02-22T23:49:37.178Z,7.83
2023-02-22T23:52:08.359Z,7.47
2023-02-22T23:54:39.398Z,7.90
2023-02-22T23:57:07.989Z,7.97
2023-02-22T23:59:34.909Z,7.70
